Time;durP1;ratioP1;P1;durP2;ratioP2;P2;SDS_P1;SDS_P2;PMS_P1;PMS_P2;Temp;Humidity;BMP_temperature;BMP_pressure;BME280_temperature;BME280_humidity;BME280_pressure;Samples;Min_cycle;Max_cycle;Signal;HPM_P1;HPM_P2
2022/06/22 00:06:41;;;;;;;3.30;1.87;;;19.40;54.20;;;;;;20920241;28;20209;-66
2022/06/22 00:16:52;;;;;;;3.17;1.90;;;19.20;54.60;;;;;;20919342;28;20249;-65
2022/06/22 00:27:06;;;;;;;4.83;2.23;;;19.10;54.90;;;;;;20917159;28;20235;-64
2022/06/22 00:37:18;;;;;;;2.77;1.90;;;18.90;55.70;;;;;;20916234;28;20590;-64
2022/06/22 00:47:28;;;;;;;5.30;1.97;;;18.80;55.90;;;;;;20921555;28;20327;-66
2022/06/22 00:57:36;;;;;;;3.47;1.90;;;18.90;56.30;;;;;;20918894;28;20233;-66
2022/06/22 01:08:01;;;;;;;2.17;1.70;;;18.80;56.60;;;;;;20916681;28;20263;-64
2022/06/22 01:18:28;;;;;;;2.93;1.90;;;18.80;56.80;;;;;;20914088;28;20706;-63
2022/06/22 01:28:30;;;;;;;4.93;1.87;;;18.70;57.10;;;;;;20913871;28;20298;-66
2022/06/22 01:38:35;;;;;;;3.37;1.90;;;18.80;57.20;;;;;;20913843;28;20264;-64
2022/06/22 01:48:54;;;;;;;4.63;2.10;;;18.70;57.70;;;;;;20912813;28;20242;-66
2022/06/22 01:59:14;;;;;;;3.73;2.00;;;18.60;57.90;;;;;;20912739;28;20235;-70
2022/06/22 02:09:22;;;;;;;4.30;2.10;;;18.40;58.10;;;;;;20912629;28;20654;-65
2022/06/22 02:19:24;;;;;;;3.73;1.90;;;18.20;58.40;;;;;;20911182;28;20239;-67
2022/06/22 02:29:33;;;;;;;6.90;2.10;;;18.00;58.70;;;;;;20910882;28;20204;-65
2022/06/22 02:39:40;;;;;;;3.87;2.10;;;18.10;59.10;;;;;;20908878;28;20231;-65
2022/06/22 02:49:52;;;;;;;2.77;1.77;;;18.30;59.00;;;;;;20926286;28;20208;-71
2022/06/22 02:59:54;;;;;;;4.37;1.70;;;18.20;59.30;;;;;;20925328;28;20326;-69
2022/06/22 03:09:57;;;;;;;2.87;1.97;;;17.90;59.60;;;;;;20924393;28;20216;-66
2022/06/22 03:20:08;;;;;;;4.33;2.07;;;17.80;60.00;;;;;;20923496;28;20247;-70
2022/06/22 03:30:32;;;;;;;2.10;1.90;;;17.80;60.30;;;;;;20922387;28;20680;-64
2022/06/22 03:40:46;;;;;;;3.87;2.20;;;17.70;60.80;;;;;;20922227;28;20246;-65
2022/06/22 03:51:08;;;;;;;2.90;2.00;;;17.70;61.20;;;;;;20922090;28;20297;-65
2022/06/22 04:01:11;;;;;;;6.63;2.20;;;17.70;61.60;;;;;;20920622;28;20245;-64
2022/06/22 04:11:40;;;;;;;5.73;2.10;;;17.60;62.00;;;;;;20919635;28;20645;-64
2022/06/22 04:21:46;;;;;;;4.70;2.70;;;17.80;62.20;;;;;;20900965;28;20243;-65
2022/06/22 04:32:14;;;;;;;5.50;2.60;;;17.70;62.60;;;;;;20916245;28;20203;-66
2022/06/22 04:42:16;;;;;;;7.43;2.97;;;17.80;62.90;;;;;;20916754;28;20316;-66
2022/06/22 04:52:26;;;;;;;12.07;3.57;;;17.80;63.20;;;;;;20916060;28;20208;-67
2022/06/22 05:02:31;;;;;;;15.83;3.30;;;18.10;63.00;;;;;;20915593;28;20274;-64
2022/06/22 05:12:45;;;;;;;16.40;3.10;;;18.30;63.10;;;;;;20914820;28;20209;-67
2022/06/22 05:22:48;;;;;;;10.90;3.77;;;18.70;62.70;;;;;;20914651;28;20264;-65
2022/06/22 05:33:02;;;;;;;10.23;3.47;;;18.80;62.10;;;;;;20913241;28;20214;-63
2022/06/22 05:43:05;;;;;;;16.73;4.57;;;18.70;61.50;;;;;;20913524;28;20240;-67
2022/06/22 05:53:24;;;;;;;12.07;3.20;;;18.70;61.20;;;;;;20975063;28;20707;-66
2022/06/22 06:03:44;;;;;;;11.77;4.97;;;18.90;60.80;;;;;;21001881;28;20286;-68
2022/06/22 06:13:59;;;;;;;19.00;3.80;;;19.20;60.70;;;;;;21011450;28;20635;-66
2022/06/22 06:24:14;;;;;;;9.90;3.20;;;19.50;60.80;;;;;;20967740;28;20214;-66
2022/06/22 06:34:21;;;;;;;8.53;2.50;;;19.80;59.80;;;;;;20924125;28;20217;-70
2022/06/22 06:44:25;;;;;;;6.67;2.73;;;20.10;58.90;;;;;;20907258;28;20600;-67
2022/06/22 06:54:56;;;;;;;12.87;3.77;;;20.30;58.70;;;;;;20926316;28;20247;-65
2022/06/22 07:05:05;;;;;;;14.53;3.10;;;20.60;57.40;;;;;;20925130;28;20273;-63
2022/06/22 07:15:18;;;;;;;16.20;3.50;;;20.80;57.10;;;;;;20920756;28;20238;-65
2022/06/22 07:25:31;;;;;;;7.03;3.17;;;21.10;56.80;;;;;;20919574;28;20204;-64
2022/06/22 07:35:38;;;;;;;12.17;4.37;;;21.30;56.30;;;;;;20917071;28;20243;-65
2022/06/22 07:45:40;;;;;;;13.87;3.00;;;21.60;55.70;;;;;;20919711;28;20244;-66
2022/06/22 07:55:59;;;;;;;7.83;3.50;;;21.90;55.20;;;;;;20919268;28;20250;-67
2022/06/22 08:06:12;;;;;;;7.37;2.90;;;22.20;54.70;;;;;;20919105;28;20581;-68
2022/06/22 08:16:21;;;;;;;10.73;3.10;;;22.60;54.30;;;;;;20900213;28;20239;-66
2022/06/22 08:26:29;;;;;;;10.53;4.13;;;22.80;53.70;;;;;;20915482;28;20204;-65
2022/06/22 08:36:42;;;;;;;5.50;2.90;;;23.10;53.10;;;;;;20916056;28;20240;-68
2022/06/22 08:47:21;;;;;;;6.77;2.53;;;23.50;52.40;;;;;;20915661;28;20231;-67
2022/06/22 08:57:53;;;;;;;13.63;4.40;;;23.70;51.90;;;;;;20915520;28;20235;-68
2022/06/22 09:08:46;;;;;;;13.03;2.80;;;24.00;51.70;;;;;;20914072;28;20216;-69
2022/06/22 09:19:23;;;;;;;6.30;3.13;;;24.40;51.20;;;;;;20913164;28;20240;-68
2022/06/22 09:29:49;;;;;;;4.77;2.17;;;24.60;50.50;;;;;;20893970;28;20638;-68
2022/06/22 09:40:32;;;;;;;5.00;2.20;;;24.90;49.60;;;;;;20911200;28;20251;-66
2022/06/22 09:51:00;;;;;;;3.87;2.30;;;25.30;48.70;;;;;;20911548;28;20542;-68
2022/06/22 10:01:23;;;;;;;5.90;2.50;;;25.50;48.00;;;;;;20910936;28;20235;-67
2022/06/22 10:11:27;;;;;;;4.63;2.20;;;25.70;47.60;;;;;;20910905;28;20207;-65
2022/06/22 10:21:44;;;;;;;3.73;2.80;;;26.00;47.00;;;;;;20910455;28;20232;-66
2022/06/22 10:32:01;;;;;;;5.53;2.87;;;26.30;46.90;;;;;;20909043;28;20207;-70
2022/06/22 10:53:00;;;;;;;6.67;2.83;;;26.30;46.30;;;;;;20913205;28;20219;-65
2022/06/22 11:03:30;;;;;;;10.57;2.93;;;26.30;46.30;;;;;;20924233;28;20236;-74
2022/06/22 11:14:01;;;;;;;5.70;3.40;;;26.40;46.00;;;;;;20924530;28;20210;-65
2022/06/22 11:24:21;;;;;;;2.93;2.20;;;26.50;46.00;;;;;;20925284;28;20239;-65
2022/06/22 11:34:50;;;;;;;3.13;2.27;;;26.60;45.60;;;;;;20928338;28;20246;-66
2022/06/22 11:55:55;;;;;;;9.60;3.40;;;26.70;45.60;;;;;;20920129;28;20223;-64
2022/06/22 12:06:16;;;;;;;3.67;2.33;;;26.70;45.60;;;;;;20919153;28;20250;-67
2022/06/22 12:16:39;;;;;;;4.37;2.77;;;26.70;45.40;;;;;;20919009;28;20326;-67
2022/06/22 12:26:55;;;;;;;2.90;2.30;;;26.80;45.30;;;;;;20919121;28;20231;-66
2022/06/22 12:37:04;;;;;;;5.57;2.40;;;26.80;45.30;;;;;;20961857;28;20254;-65
2022/06/22 12:47:49;;;;;;;5.20;3.20;;;26.80;45.40;;;;;;20995908;28;20235;-64
2022/06/22 12:58:15;;;;;;;4.83;2.40;;;26.80;45.40;;;;;;20823042;28;20232;-72
2022/06/22 13:08:22;;;;;;;8.90;2.60;;;26.90;45.40;;;;;;20822723;28;20208;-66
2022/06/22 13:19:01;;;;;;;6.73;2.70;;;27.20;45.60;;;;;;20904371;28;20250;-69
2022/06/22 13:29:33;;;;;;;7.97;2.70;;;27.30;45.70;;;;;;20986985;28;20654;-67
2022/06/22 13:39:56;;;;;;;7.07;2.90;;;27.40;45.10;;;;;;20994630;28;20235;-71
2022/06/22 13:50:24;;;;;;;5.30;2.53;;;27.60;45.20;;;;;;20995446;28;20706;-70
2022/06/22 14:00:42;;;;;;;3.93;2.40;;;27.80;44.80;;;;;;20993835;28;20325;-67
2022/06/22 14:11:12;;;;;;;6.07;2.78;;;27.90;44.90;;;;;;20992761;28;20575;-69
2022/06/22 14:21:14;;;;;;;4.78;2.88;;;27.90;45.20;;;;;;20994003;28;20253;-70
2022/06/22 14:31:33;;;;;;;4.07;3.60;;;28.20;45.10;;;;;;20996915;28;20215;-65
2022/06/22 14:41:41;;;;;;;4.88;3.08;;;28.30;45.30;;;;;;21009478;28;20318;-64
2022/06/22 14:51:52;;;;;;;4.50;2.67;;;28.50;45.40;;;;;;20990272;28;20207;-64
2022/06/22 15:01:57;;;;;;;11.63;3.17;;;28.40;45.50;;;;;;21007195;28;20341;-66
2022/06/22 15:22:53;;;;;;;4.68;2.80;;;28.20;45.90;;;;;;21006214;28;20751;-61
2022/06/22 15:33:23;;;;;;;4.93;3.30;;;28.20;46.10;;;;;;21004198;28;20253;-68
2022/06/22 15:43:49;;;;;;;8.70;3.13;;;28.00;48.40;;;;;;20987072;28;20235;-65
2022/06/22 15:54:06;;;;;;;7.28;3.85;;;28.00;50.50;;;;;;21002156;28;20207;-65
2022/06/22 16:04:19;;;;;;;6.93;3.63;;;28.00;50.80;;;;;;21008177;28;20258;-67
2022/06/22 16:14:55;;;;;;;5.47;3.90;;;27.90;51.40;;;;;;21055524;28;20207;-69
2022/06/22 16:25:08;;;;;;;5.70;3.77;;;27.70;52.00;;;;;;20997873;28;20203;-67
2022/06/22 16:35:21;;;;;;;6.57;4.00;;;27.40;52.80;;;;;;20998633;28;20207;-64
2022/06/22 16:45:38;;;;;;;10.53;3.77;;;27.00;53.70;;;;;;21000309;28;20725;-67
2022/06/22 16:55:44;;;;;;;9.77;4.00;;;26.70;54.20;;;;;;20998880;28;20231;-64
2022/06/22 17:06:06;;;;;;;7.57;4.40;;;26.50;55.20;;;;;;20998507;28;20207;-69
2022/06/22 17:16:29;;;;;;;9.07;4.67;;;26.30;56.80;;;;;;21012419;28;20229;-65
2022/06/22 17:26:52;;;;;;;9.23;4.87;;;26.20;58.60;;;;;;20996716;28;20663;-64
2022/06/22 17:37:13;;;;;;;6.20;4.73;;;26.00;60.00;;;;;;20996423;28;20241;-64
2022/06/22 17:47:21;;;;;;;7.10;5.13;;;25.80;61.50;;;;;;20929049;28;20273;-71
2022/06/22 17:57:31;;;;;;;9.63;5.20;;;25.70;62.80;;;;;;20912445;28;20654;-65
2022/06/22 18:07:36;;;;;;;8.43;4.97;;;25.50;63.70;;;;;;20909532;28;20239;-67
2022/06/22 18:17:41;;;;;;;10.07;5.20;;;25.40;64.80;;;;;;20911661;28;20289;-70
2022/06/22 18:27:53;;;;;;;8.83;5.13;;;25.20;65.90;;;;;;20877058;28;20652;-66
2022/06/22 18:38:08;;;;;;;12.40;5.40;;;25.10;66.90;;;;;;20809108;28;20726;-65
2022/06/22 18:48:20;;;;;;;8.37;5.83;;;24.90;68.20;;;;;;20906453;28;20240;-69
2022/06/22 18:58:53;;;;;;;10.87;5.63;;;24.80;69.70;;;;;;20937399;28;20241;-67
2022/06/22 19:09:32;;;;;;;8.37;5.10;;;24.70;70.90;;;;;;20984623;28;20215;-65
2022/06/22 19:19:51;;;;;;;7.03;5.87;;;24.70;71.80;;;;;;20980222;28;20230;-71
2022/06/22 19:29:52;;;;;;;12.73;6.17;;;24.50;72.80;;;;;;21006210;28;20230;-67
2022/06/22 19:40:17;;;;;;;8.83;6.17;;;24.40;73.40;;;;;;21005713;28;20625;-69
2022/06/22 19:50:36;;;;;;;8.17;5.97;;;24.30;74.30;;;;;;21005268;28;20204;-70
2022/06/22 20:00:47;;;;;;;12.63;6.33;;;24.20;75.30;;;;;;21003735;28;20326;-71
2022/06/22 20:10:54;;;;;;;8.47;5.80;;;24.00;76.20;;;;;;21003167;28;20981;-64
2022/06/22 20:21:08;;;;;;;12.27;5.97;;;23.90;77.10;;;;;;21002916;28;20261;-70
2022/06/22 20:31:10;;;;;;;6.43;5.83;;;23.80;78.00;;;;;;20943826;28;20667;-65
2022/06/22 20:41:53;;;;;;;7.53;5.63;;;23.70;78.70;;;;;;20899338;28;20270;-67
2022/06/22 20:52:02;;;;;;;8.47;5.90;;;23.60;79.50;;;;;;20991388;28;20286;-68
2022/06/22 21:02:08;;;;;;;9.87;6.80;;;23.60;80.20;;;;;;20998711;28;20321;-64
2022/06/22 21:12:29;;;;;;;8.40;6.83;;;23.40;80.90;;;;;;20996910;28;20279;-65
2022/06/22 21:22:35;;;;;;;9.37;5.87;;;23.30;81.50;;;;;;21030428;28;20235;-64
2022/06/22 21:32:38;;;;;;;7.57;6.10;;;23.20;82.10;;;;;;21026500;28;20203;-65
2022/06/22 21:43:14;;;;;;;10.77;6.27;;;23.10;82.90;;;;;;20998829;28;20239;-67
2022/06/22 21:53:59;;;;;;;9.37;5.80;;;23.00;83.60;;;;;;20997222;28;20290;-69
2022/06/22 22:04:09;;;;;;;7.93;6.30;;;22.80;84.10;;;;;;20977504;28;20620;-66
2022/06/22 22:14:18;;;;;;;8.97;6.40;;;22.70;84.90;;;;;;20977556;28;20658;-64
2022/06/22 22:24:42;;;;;;;9.97;5.83;;;22.70;85.70;;;;;;20995161;28;20249;-66
2022/06/22 22:34:47;;;;;;;10.20;6.40;;;22.60;86.10;;;;;;20994731;28;20204;-64
2022/06/22 22:44:53;;;;;;;14.10;8.63;;;22.50;86.60;;;;;;20994505;28;20271;-68
2022/06/22 22:55:03;;;;;;;9.17;6.70;;;22.30;87.50;;;;;;21009756;28;20208;-65
2022/06/22 23:05:18;;;;;;;13.77;7.60;;;22.30;88.10;;;;;;21013734;28;20283;-66
2022/06/22 23:15:24;;;;;;;13.70;7.43;;;22.10;88.50;;;;;;21012317;28;20564;-66
2022/06/22 23:25:48;;;;;;;8.37;7.20;;;22.00;89.60;;;;;;21009586;28;20609;-65
2022/06/22 23:35:50;;;;;;;10.93;7.17;;;21.90;90.00;;;;;;21006510;28;20217;-65
2022/06/22 23:45:55;;;;;;;16.30;8.03;;;21.80;90.20;;;;;;20987185;28;20736;-65
2022/06/22 23:55:57;;;;;;;12.23;8.03;;;21.60;90.50;;;;;;21004541;28;20304;-64
